sensor_id;sensor_type;location;lat;lon;timestamp;pressure;altitude;pressure_sealevel;temperature;humidity
49611;BME280;35515;48.766;9.176;2023-04-27T00:01:26;98439.75;;;9.03;66.63
49611;BME280;35515;48.766;9.176;2023-04-27T00:03:54;98440.19;;;9.07;66.45
49611;BME280;35515;48.766;9.176;2023-04-27T00:06:21;98441.16;;;8.99;66.88
49611;BME280;35515;48.766;9.176;2023-04-27T00:08:48;98436.75;;;8.91;68.06
49611;BME280;35515;48.766;9.176;2023-04-27T00:11:14;98429.84;;;8.89;67.58
49611;BME280;35515;48.766;9.176;2023-04-27T00:13:41;98432.81;;;8.94;67.69
49611;BME280;35515;48.766;9.176;2023-04-27T00:16:07;98426.59;;;8.93;67.80
49611;BME280;35515;48.766;9.176;2023-04-27T00:18:34;98422.78;;;8.87;68.36
49611;BME280;35515;48.766;9.176;2023-04-27T00:21:02;98429.59;;;8.83;68.70
49611;BME280;35515;48.766;9.176;2023-04-27T00:23:29;98432.31;;;8.83;69.13
49611;BME280;35515;48.766;9.176;2023-04-27T00:25:55;98424.88;;;8.85;68.18
49611;BME280;35515;48.766;9.176;2023-04-27T00:28:22;98414.69;;;8.87;67.83
49611;BME280;35515;48.766;9.176;2023-04-27T00:30:48;98418.44;;;8.86;68.60
49611;BME280;35515;48.766;9.176;2023-04-27T00:33:18;98415.28;;;8.83;68.97
49611;BME280;35515;48.766;9.176;2023-04-27T00:35:45;98415.72;;;8.86;68.78
49611;BME280;35515;48.766;9.176;2023-04-27T00:38:13;98417.53;;;8.79;69.09
49611;BME280;35515;48.766;9.176;2023-04-27T00:40:40;98414.31;;;8.91;68.52
49611;BME280;35515;48.766;9.176;2023-04-27T00:43:06;98411.97;;;8.87;69.09
49611;BME280;35515;48.766;9.176;2023-04-27T00:45:41;98408.25;;;8.89;68.74
49611;BME280;35515;48.766;9.176;2023-04-27T00:48:08;98408.84;;;8.84;68.58
49611;BME280;35515;48.766;9.176;2023-04-27T00:50:35;98405.28;;;8.83;68.70
49611;BME280;35515;48.766;9.176;2023-04-27T00:53:04;98410.31;;;8.86;68.36
49611;BME280;35515;48.766;9.176;2023-04-27T00:55:32;98407.22;;;8.90;68.18
49611;BME280;35515;48.766;9.176;2023-04-27T00:57:59;98399.91;;;8.83;68.93
49611;BME280;35515;48.766;9.176;2023-04-27T01:00:25;98404.03;;;8.79;69.08
49611;BME280;35515;48.766;9.176;2023-04-27T01:02:52;98406.16;;;8.84;69.23
49611;BME280;35515;48.766;9.176;2023-04-27T01:05:19;98405.44;;;8.75;69.54
49611;BME280;35515;48.766;9.176;2023-04-27T01:07:47;98413.94;;;8.72;69.78
49611;BME280;35515;48.766;9.176;2023-04-27T01:10:13;98405.28;;;8.83;69.66
49611;BME280;35515;48.766;9.176;2023-04-27T01:12:41;98406.09;;;8.77;69.88
49611;BME280;35515;48.766;9.176;2023-04-27T01:15:09;98406.88;;;8.71;69.79
49611;BME280;35515;48.766;9.176;2023-04-27T01:17:36;98405.03;;;8.78;69.86
49611;BME280;35515;48.766;9.176;2023-04-27T01:20:03;98410.06;;;8.81;69.05
49611;BME280;35515;48.766;9.176;2023-04-27T01:22:31;98406.72;;;8.79;69.29
49611;BME280;35515;48.766;9.176;2023-04-27T01:24:59;98414.41;;;8.76;69.17
49611;BME280;35515;48.766;9.176;2023-04-27T01:27:26;98414.47;;;8.82;68.60
49611;BME280;35515;48.766;9.176;2023-04-27T01:29:52;98416.06;;;8.77;69.22
49611;BME280;35515;48.766;9.176;2023-04-27T01:32:19;98422.63;;;8.67;69.72
49611;BME280;35515;48.766;9.176;2023-04-27T01:34:45;98410.16;;;8.66;70.11
49611;BME280;35515;48.766;9.176;2023-04-27T01:37:12;98409.31;;;8.66;70.06
49611;BME280;35515;48.766;9.176;2023-04-27T01:39:40;98410.59;;;8.70;69.74
49611;BME280;35515;48.766;9.176;2023-04-27T01:42:08;98402.25;;;8.65;70.21
49611;BME280;35515;48.766;9.176;2023-04-27T01:44:34;98406.00;;;8.64;70.56
49611;BME280;35515;48.766;9.176;2023-04-27T01:47:01;98407.03;;;8.63;70.30
49611;BME280;35515;48.766;9.176;2023-04-27T01:49:27;98412.03;;;8.66;70.35
49611;BME280;35515;48.766;9.176;2023-04-27T01:51:54;98407.84;;;8.63;70.46
49611;BME280;35515;48.766;9.176;2023-04-27T01:54:20;98406.38;;;8.61;70.59
49611;BME280;35515;48.766;9.176;2023-04-27T01:56:47;98414.53;;;8.46;71.38
49611;BME280;35515;48.766;9.176;2023-04-27T01:59:15;98421.13;;;8.43;71.69
49611;BME280;35515;48.766;9.176;2023-04-27T02:01:41;98428.03;;;8.46;71.55
49611;BME280;35515;48.766;9.176;2023-04-27T02:04:08;98418.06;;;8.46;71.64
49611;BME280;35515;48.766;9.176;2023-04-27T02:06:35;98402.31;;;8.50;71.81
49611;BME280;35515;48.766;9.176;2023-04-27T02:09:01;98421.63;;;8.47;71.94
49611;BME280;35515;48.766;9.176;2023-04-27T02:11:28;98424.84;;;8.42;71.98
49611;BME280;35515;48.766;9.176;2023-04-27T02:13:54;98431.94;;;8.43;72.45
49611;BME280;35515;48.766;9.176;2023-04-27T02:16:22;98426.16;;;8.46;71.08
49611;BME280;35515;48.766;9.176;2023-04-27T02:18:49;98429.72;;;8.47;71.93
49611;BME280;35515;48.766;9.176;2023-04-27T02:21:17;98431.88;;;8.36;72.53
49611;BME280;35515;48.766;9.176;2023-04-27T02:23:44;98430.13;;;8.29;72.94
49611;BME280;35515;48.766;9.176;2023-04-27T02:26:15;98430.19;;;8.35;72.86
49611;BME280;35515;48.766;9.176;2023-04-27T02:28:43;98438.94;;;8.37;72.78
49611;BME280;35515;48.766;9.176;2023-04-27T02:31:10;98437.81;;;8.47;72.60
49611;BME280;35515;48.766;9.176;2023-04-27T02:33:38;98437.34;;;8.43;72.37
49611;BME280;35515;48.766;9.176;2023-04-27T02:36:05;98440.78;;;8.52;71.54
49611;BME280;35515;48.766;9.176;2023-04-27T02:38:32;98438.97;;;8.59;70.67
49611;BME280;35515;48.766;9.176;2023-04-27T02:40:58;98436.97;;;8.46;71.68
49611;BME280;35515;48.766;9.176;2023-04-27T02:43:25;98447.50;;;8.41;72.49
49611;BME280;35515;48.766;9.176;2023-04-27T02:45:51;98446.13;;;8.45;71.46
49611;BME280;35515;48.766;9.176;2023-04-27T02:48:18;98444.97;;;8.40;72.17
49611;BME280;35515;48.766;9.176;2023-04-27T02:50:46;98444.81;;;8.41;71.82
49611;BME280;35515;48.766;9.176;2023-04-27T02:53:12;98445.16;;;8.38;72.07
49611;BME280;35515;48.766;9.176;2023-04-27T02:55:44;98446.97;;;8.31;72.27
49611;BME280;35515;48.766;9.176;2023-04-27T02:58:11;98450.44;;;8.25;73.13
49611;BME280;35515;48.766;9.176;2023-04-27T03:00:38;98451.72;;;8.29;72.25
49611;BME280;35515;48.766;9.176;2023-04-27T03:03:06;98459.66;;;8.30;72.23
49611;BME280;35515;48.766;9.176;2023-04-27T03:05:32;98447.38;;;8.28;72.21
49611;BME280;35515;48.766;9.176;2023-04-27T03:08:00;98453.53;;;8.22;72.34
49611;BME280;35515;48.766;9.176;2023-04-27T03:10:27;98450.22;;;8.26;71.91
49611;BME280;35515;48.766;9.176;2023-04-27T03:12:54;98443.34;;;8.24;72.50
49611;BME280;35515;48.766;9.176;2023-04-27T03:15:20;98438.75;;;8.17;73.08
49611;BME280;35515;48.766;9.176;2023-04-27T03:17:47;98432.94;;;8.20;73.38
49611;BME280;35515;48.766;9.176;2023-04-27T03:20:13;98436.31;;;8.23;73.41
49611;BME280;35515;48.766;9.176;2023-04-27T03:22:40;98439.28;;;8.28;73.25
49611;BME280;35515;48.766;9.176;2023-04-27T03:25:08;98447.38;;;8.28;73.35
49611;BME280;35515;48.766;9.176;2023-04-27T03:27:35;98442.59;;;8.30;72.97
49611;BME280;35515;48.766;9.176;2023-04-27T03:30:02;98449.16;;;8.42;71.81
49611;BME280;35515;48.766;9.176;2023-04-27T03:32:28;98451.28;;;8.25;73.22
49611;BME280;35515;48.766;9.176;2023-04-27T03:34:56;98444.09;;;8.32;73.37
49611;BME280;35515;48.766;9.176;2023-04-27T03:37:22;98453.00;;;8.33;73.38
49611;BME280;35515;48.766;9.176;2023-04-27T03:39:49;98449.22;;;8.27;73.81
49611;BME280;35515;48.766;9.176;2023-04-27T03:42:17;98454.75;;;8.41;73.02
49611;BME280;35515;48.766;9.176;2023-04-27T03:44:43;98454.06;;;8.32;73.39
49611;BME280;35515;48.766;9.176;2023-04-27T03:47:10;98454.13;;;8.39;72.73
49611;BME280;35515;48.766;9.176;2023-04-27T03:49:36;98451.16;;;8.33;73.12
49611;BME280;35515;48.766;9.176;2023-04-27T03:52:03;98457.13;;;8.29;73.62
49611;BME280;35515;48.766;9.176;2023-04-27T03:54:30;98459.25;;;8.33;73.57
49611;BME280;35515;48.766;9.176;2023-04-27T03:56:57;98454.41;;;8.29;73.41
49611;BME280;35515;48.766;9.176;2023-04-27T03:59:27;98446.44;;;8.20;74.55
49611;BME280;35515;48.766;9.176;2023-04-27T04:01:54;98457.50;;;8.26;73.69
49611;BME280;35515;48.766;9.176;2023-04-27T04:04:21;98449.81;;;8.23;74.61
49611;BME280;35515;48.766;9.176;2023-04-27T04:06:48;98446.72;;;8.26;73.92
49611;BME280;35515;48.766;9.176;2023-04-27T04:09:14;98455.91;;;8.31;73.93
49611;BME280;35515;48.766;9.176;2023-04-27T04:11:41;98449.69;;;8.31;74.12
49611;BME280;35515;48.766;9.176;2023-04-27T04:14:08;98450.97;;;8.35;74.91
49611;BME280;35515;48.766;9.176;2023-04-27T04:16:36;98450.38;;;8.55;74.44
49611;BME280;35515;48.766;9.176;2023-04-27T04:19:02;98459.63;;;8.45;74.00
49611;BME280;35515;48.766;9.176;2023-04-27T04:21:29;98458.94;;;8.43;74.19
49611;BME280;35515;48.766;9.176;2023-04-27T04:23:56;98461.75;;;8.35;74.46
49611;BME280;35515;48.766;9.176;2023-04-27T04:26:22;98457.25;;;8.42;74.32
49611;BME280;35515;48.766;9.176;2023-04-27T04:28:49;98454.56;;;8.42;74.41
49611;BME280;35515;48.766;9.176;2023-04-27T04:31:16;98462.66;;;8.42;74.23
49611;BME280;35515;48.766;9.176;2023-04-27T04:33:44;98460.16;;;8.41;74.80
49611;BME280;35515;48.766;9.176;2023-04-27T04:36:11;98467.09;;;8.28;75.16
49611;BME280;35515;48.766;9.176;2023-04-27T04:38:37;98469.13;;;8.26;75.54
49611;BME280;35515;48.766;9.176;2023-04-27T04:41:04;98469.19;;;8.33;74.81
49611;BME280;35515;48.766;9.176;2023-04-27T04:43:31;98475.38;;;8.27;74.71
49611;BME280;35515;48.766;9.176;2023-04-27T04:45:58;98471.16;;;8.39;73.49
49611;BME280;35515;48.766;9.176;2023-04-27T04:48:25;98468.84;;;8.36;73.32
49611;BME280;35515;48.766;9.176;2023-04-27T04:50:54;98465.06;;;8.30;73.62
49611;BME280;35515;48.766;9.176;2023-04-27T04:53:21;98466.25;;;8.28;74.06
49611;BME280;35515;48.766;9.176;2023-04-27T04:55:47;98463.94;;;8.25;73.83
49611;BME280;35515;48.766;9.176;2023-04-27T04:58:14;98462.91;;;8.26;73.75
49611;BME280;35515;48.766;9.176;2023-04-27T05:00:40;98467.09;;;8.28;74.60
49611;BME280;35515;48.766;9.176;2023-04-27T05:03:07;98469.66;;;8.36;73.61
49611;BME280;35515;48.766;9.176;2023-04-27T05:05:33;98471.91;;;8.33;74.32
49611;BME280;35515;48.766;9.176;2023-04-27T05:08:01;98469.41;;;8.31;74.73
49611;BME280;35515;48.766;9.176;2023-04-27T05:10:28;98481.31;;;8.37;75.18
49611;BME280;35515;48.766;9.176;2023-04-27T05:12:54;98476.53;;;8.39;74.98
49611;BME280;35515;48.766;9.176;2023-04-27T05:15:21;98473.84;;;8.39;75.29
49611;BME280;35515;48.766;9.176;2023-04-27T05:17:47;98471.34;;;8.37;75.36
49611;BME280;35515;48.766;9.176;2023-04-27T05:20:14;98470.41;;;8.45;74.79
49611;BME280;35515;48.766;9.176;2023-04-27T05:22:41;98473.44;;;8.42;74.32
49611;BME280;35515;48.766;9.176;2023-04-27T05:25:09;98474.66;;;8.40;75.30
49611;BME280;35515;48.766;9.176;2023-04-27T05:27:35;98464.63;;;8.48;74.78
49611;BME280;35515;48.766;9.176;2023-04-27T05:30:02;98469.88;;;8.57;73.86
49611;BME280;35515;48.766;9.176;2023-04-27T05:32:29;98477.38;;;8.55;74.21
49611;BME280;35515;48.766;9.176;2023-04-27T05:34:57;98482.44;;;8.64;73.34
49611;BME280;35515;48.766;9.176;2023-04-27T05:37:24;98483.66;;;8.62;73.74
49611;BME280;35515;48.766;9.176;2023-04-27T05:39:50;98490.34;;;8.66;73.86
49611;BME280;35515;48.766;9.176;2023-04-27T05:42:18;98488.50;;;8.66;73.62
49611;BME280;35515;48.766;9.176;2023-04-27T05:44:45;98493.69;;;8.68;73.73
49611;BME280;35515;48.766;9.176;2023-04-27T05:47:12;98487.28;;;8.69;73.98
49611;BME280;35515;48.766;9.176;2023-04-27T05:49:38;98486.88;;;8.72;74.07
49611;BME280;35515;48.766;9.176;2023-04-27T05:52:05;98489.84;;;8.77;74.36
49611;BME280;35515;48.766;9.176;2023-04-27T05:54:32;98494.97;;;8.72;74.28
49611;BME280;35515;48.766;9.176;2023-04-27T05:56:58;98496.66;;;8.73;74.15
49611;BME280;35515;48.766;9.176;2023-04-27T05:59:26;98496.13;;;8.84;73.94
49611;BME280;35515;48.766;9.176;2023-04-27T06:01:53;98500.09;;;8.89;73.16
49611;BME280;35515;48.766;9.176;2023-04-27T06:04:20;98500.16;;;8.95;72.13
49611;BME280;35515;48.766;9.176;2023-04-27T06:06:46;98503.47;;;8.91;72.55
49611;BME280;35515;48.766;9.176;2023-04-27T06:09:13;98498.88;;;8.91;72.79
49611;BME280;35515;48.766;9.176;2023-04-27T06:11:39;98496.84;;;8.93;72.70
49611;BME280;35515;48.766;9.176;2023-04-27T06:14:07;98504.09;;;8.93;72.68
49611;BME280;35515;48.766;9.176;2023-04-27T06:16:35;98506.91;;;9.06;72.95
49611;BME280;35515;48.766;9.176;2023-04-27T06:19:02;98505.25;;;9.05;72.80
49611;BME280;35515;48.766;9.176;2023-04-27T06:21:31;98506.72;;;9.08;72.78
49611;BME280;35515;48.766;9.176;2023-04-27T06:23:57;98505.97;;;9.20;72.26
49611;BME280;35515;48.766;9.176;2023-04-27T06:26:24;98506.59;;;9.16;71.97
49611;BME280;35515;48.766;9.176;2023-04-27T06:28:50;98512.00;;;9.16;72.47
49611;BME280;35515;48.766;9.176;2023-04-27T06:31:17;98518.22;;;9.16;71.92
49611;BME280;35515;48.766;9.176;2023-04-27T06:33:45;98512.81;;;9.16;72.65
49611;BME280;35515;48.766;9.176;2023-04-27T06:36:11;98516.78;;;9.20;71.84
49611;BME280;35515;48.766;9.176;2023-04-27T06:38:38;98519.13;;;9.24;71.78
49611;BME280;35515;48.766;9.176;2023-04-27T06:41:05;98519.94;;;9.24;72.04
49611;BME280;35515;48.766;9.176;2023-04-27T06:43:31;98522.44;;;9.26;71.75
49611;BME280;35515;48.766;9.176;2023-04-27T06:45:58;98517.88;;;9.26;71.84
49611;BME280;35515;48.766;9.176;2023-04-27T06:48:24;98523.72;;;9.30;71.68
49611;BME280;35515;48.766;9.176;2023-04-27T06:50:52;98520.47;;;9.34;71.67
49611;BME280;35515;48.766;9.176;2023-04-27T06:53:19;98522.09;;;9.35;72.88
49611;BME280;35515;48.766;9.176;2023-04-27T06:55:45;98519.41;;;9.35;72.77
49611;BME280;35515;48.766;9.176;2023-04-27T06:58:12;98522.81;;;9.44;71.10
49611;BME280;35515;48.766;9.176;2023-04-27T07:00:39;98526.78;;;9.48;70.29
49611;BME280;35515;48.766;9.176;2023-04-27T07:03:05;98520.19;;;9.58;70.00
49611;BME280;35515;48.766;9.176;2023-04-27T07:05:32;98523.75;;;9.65;70.14
49611;BME280;35515;48.766;9.176;2023-04-27T07:08:00;98525.63;;;9.64;71.30
49611;BME280;35515;48.766;9.176;2023-04-27T07:10:27;98527.94;;;9.67;70.47
49611;BME280;35515;48.766;9.176;2023-04-27T07:12:54;98526.13;;;9.75;70.99
49611;BME280;35515;48.766;9.176;2023-04-27T07:15:21;98524.31;;;9.88;70.90
49611;BME280;35515;48.766;9.176;2023-04-27T07:17:48;98528.69;;;9.90;70.24
49611;BME280;35515;48.766;9.176;2023-04-27T07:20:14;98523.75;;;10.00;70.47
49611;BME280;35515;48.766;9.176;2023-04-27T07:22:41;98525.81;;;9.98;69.17
49611;BME280;35515;48.766;9.176;2023-04-27T07:25:09;98522.91;;;9.99;68.19
49611;BME280;35515;48.766;9.176;2023-04-27T07:27:36;98523.31;;;9.96;67.40
49611;BME280;35515;48.766;9.176;2023-04-27T07:30:03;98520.41;;;9.98;67.95
49611;BME280;35515;48.766;9.176;2023-04-27T07:32:33;98515.88;;;10.05;67.88
49611;BME280;35515;48.766;9.176;2023-04-27T07:34:59;98521.31;;;10.12;66.29
49611;BME280;35515;48.766;9.176;2023-04-27T07:37:27;98512.78;;;10.15;67.08
49611;BME280;35515;48.766;9.176;2023-04-27T07:39:53;98517.19;;;10.23;66.92
49611;BME280;35515;48.766;9.176;2023-04-27T07:42:21;98515.53;;;10.28;64.85
49611;BME280;35515;48.766;9.176;2023-04-27T07:44:49;98503.25;;;10.32;62.76
49611;BME280;35515;48.766;9.176;2023-04-27T07:47:16;98507.50;;;10.42;61.99
49611;BME280;35515;48.766;9.176;2023-04-27T07:49:43;98518.47;;;10.33;62.75
49611;BME280;35515;48.766;9.176;2023-04-27T07:52:11;98509.31;;;10.34;62.71
49611;BME280;35515;48.766;9.176;2023-04-27T07:54:38;98502.28;;;10.40;62.38
49611;BME280;35515;48.766;9.176;2023-04-27T07:57:07;98511.25;;;10.47;61.16
49611;BME280;35515;48.766;9.176;2023-04-27T07:59:35;98511.50;;;10.59;60.62
49611;BME280;35515;48.766;9.176;2023-04-27T08:02:02;98506.94;;;10.66;60.86
49611;BME280;35515;48.766;9.176;2023-04-27T08:04:28;98510.28;;;10.75;61.02
49611;BME280;35515;48.766;9.176;2023-04-27T08:06:55;98510.94;;;10.91;59.34
49611;BME280;35515;48.766;9.176;2023-04-27T08:09:24;98514.91;;;10.95;59.19
49611;BME280;35515;48.766;9.176;2023-04-27T08:11:51;98502.38;;;11.07;58.87
49611;BME280;35515;48.766;9.176;2023-04-27T08:14:17;98503.63;;;11.11;58.43
49611;BME280;35515;48.766;9.176;2023-04-27T08:16:45;98508.03;;;11.12;60.06
49611;BME280;35515;48.766;9.176;2023-04-27T08:19:11;98508.22;;;11.24;60.13
49611;BME280;35515;48.766;9.176;2023-04-27T08:21:38;98486.97;;;11.28;56.97
49611;BME280;35515;48.766;9.176;2023-04-27T08:24:05;98489.66;;;11.28;56.75
49611;BME280;35515;48.766;9.176;2023-04-27T08:26:32;98496.75;;;11.29;55.88
49611;BME280;35515;48.766;9.176;2023-04-27T08:28:59;98490.28;;;11.30;55.44
49611;BME280;35515;48.766;9.176;2023-04-27T08:31:26;98485.28;;;11.27;54.87
49611;BME280;35515;48.766;9.176;2023-04-27T08:33:55;98483.19;;;11.29;54.79
49611;BME280;35515;48.766;9.176;2023-04-27T08:36:22;98480.47;;;11.29;55.09
49611;BME280;35515;48.766;9.176;2023-04-27T08:38:50;98480.44;;;11.35;54.21
49611;BME280;35515;48.766;9.176;2023-04-27T08:41:17;98471.91;;;11.45;53.33
49611;BME280;35515;48.766;9.176;2023-04-27T08:43:45;98474.16;;;11.62;52.22
49611;BME280;35515;48.766;9.176;2023-04-27T08:46:17;98470.59;;;11.68;52.32
49611;BME280;35515;48.766;9.176;2023-04-27T08:48:43;98468.72;;;11.68;52.31
49611;BME280;35515;48.766;9.176;2023-04-27T08:51:13;98465.38;;;11.73;52.29
49611;BME280;35515;48.766;9.176;2023-04-27T08:53:45;98468.44;;;11.97;51.84
49611;BME280;35515;48.766;9.176;2023-04-27T08:56:12;98468.41;;;12.10;52.01
49611;BME280;35515;48.766;9.176;2023-04-27T08:58:39;98463.75;;;12.17;52.61
49611;BME280;35515;48.766;9.176;2023-04-27T09:01:07;98458.81;;;12.08;53.21
49611;BME280;35515;48.766;9.176;2023-04-27T09:03:34;98458.78;;;12.14;51.83
49611;BME280;35515;48.766;9.176;2023-04-27T09:06:02;98470.19;;;12.23;51.46
49611;BME280;35515;48.766;9.176;2023-04-27T09:08:41;98463.31;;;12.20;53.04
49611;BME280;35515;48.766;9.176;2023-04-27T09:11:08;98464.56;;;12.25;53.30
49611;BME280;35515;48.766;9.176;2023-04-27T09:13:35;98457.72;;;12.47;52.70
49611;BME280;35515;48.766;9.176;2023-04-27T09:16:02;98460.22;;;12.56;53.39
49611;BME280;35515;48.766;9.176;2023-04-27T09:18:29;98467.91;;;12.59;53.50
49611;BME280;35515;48.766;9.176;2023-04-27T09:20:58;98468.75;;;12.59;53.43
49611;BME280;35515;48.766;9.176;2023-04-27T09:23:25;98477.56;;;12.54;52.79
49611;BME280;35515;48.766;9.176;2023-04-27T09:25:54;98474.94;;;12.41;52.52
49611;BME280;35515;48.766;9.176;2023-04-27T09:28:21;98475.72;;;12.48;52.54
49611;BME280;35515;48.766;9.176;2023-04-27T09:30:52;98477.97;;;12.51;52.82
49611;BME280;35515;48.766;9.176;2023-04-27T09:33:23;98472.28;;;12.66;50.85
49611;BME280;35515;48.766;9.176;2023-04-27T09:35:51;98471.09;;;12.56;52.18
49611;BME280;35515;48.766;9.176;2023-04-27T09:38:18;98477.13;;;12.58;51.70
49611;BME280;35515;48.766;9.176;2023-04-27T09:40:46;98462.31;;;12.53;51.88
49611;BME280;35515;48.766;9.176;2023-04-27T09:43:14;98470.28;;;12.48;52.75
49611;BME280;35515;48.766;9.176;2023-04-27T09:45:41;98469.31;;;12.68;51.96
49611;BME280;35515;48.766;9.176;2023-04-27T09:48:08;98472.22;;;12.73;51.00
49611;BME280;35515;48.766;9.176;2023-04-27T09:50:36;98466.69;;;12.86;51.14
49611;BME280;35515;48.766;9.176;2023-04-27T09:53:06;98461.03;;;13.13;50.56
49611;BME280;35515;48.766;9.176;2023-04-27T09:55:35;98459.06;;;13.20;50.10
49611;BME280;35515;48.766;9.176;2023-04-27T10:01:03;98461.84;;;13.39;49.53
49611;BME280;35515;48.766;9.176;2023-04-27T10:03:39;98454.16;;;13.36;49.12
49611;BME280;35515;48.766;9.176;2023-04-27T10:06:45;98453.09;;;13.37;49.01
49611;BME280;35515;48.766;9.176;2023-04-27T10:09:19;98466.13;;;13.53;48.61
49611;BME280;35515;48.766;9.176;2023-04-27T10:11:48;98465.22;;;13.60;48.90
49611;BME280;35515;48.766;9.176;2023-04-27T10:14:16;98466.44;;;13.64;47.90
49611;BME280;35515;48.766;9.176;2023-04-27T10:16:45;98472.16;;;13.74;48.06
49611;BME280;35515;48.766;9.176;2023-04-27T10:19:12;98474.75;;;13.69;47.53
49611;BME280;35515;48.766;9.176;2023-04-27T10:21:51;98463.31;;;13.42;48.54
49611;BME280;35515;48.766;9.176;2023-04-27T10:24:18;98465.63;;;13.38;48.16
49611;BME280;35515;48.766;9.176;2023-04-27T10:26:45;98459.06;;;13.20;48.76
49611;BME280;35515;48.766;9.176;2023-04-27T10:29:12;98462.47;;;13.16;49.08
49611;BME280;35515;48.766;9.176;2023-04-27T10:31:42;98466.41;;;13.20;48.45
49611;BME280;35515;48.766;9.176;2023-04-27T10:34:15;98460.16;;;13.19;48.59
49611;BME280;35515;48.766;9.176;2023-04-27T10:36:41;98463.00;;;13.25;48.35
49611;BME280;35515;48.766;9.176;2023-04-27T10:39:15;98459.47;;;13.24;48.41
49611;BME280;35515;48.766;9.176;2023-04-27T10:41:50;98443.03;;;13.12;48.41
49611;BME280;35515;48.766;9.176;2023-04-27T10:44:16;98449.63;;;13.23;49.02
49611;BME280;35515;48.766;9.176;2023-04-27T10:46:50;98456.13;;;13.47;48.02
49611;BME280;35515;48.766;9.176;2023-04-27T10:49:18;98441.63;;;13.53;48.16
49611;BME280;35515;48.766;9.176;2023-04-27T10:51:45;98436.34;;;13.59;47.78
49611;BME280;35515;48.766;9.176;2023-04-27T10:54:12;98436.50;;;13.64;48.43
49611;BME280;35515;48.766;9.176;2023-04-27T10:56:39;98436.94;;;13.79;47.26
49611;BME280;35515;48.766;9.176;2023-04-27T10:59:06;98443.06;;;13.93;47.02
49611;BME280;35515;48.766;9.176;2023-04-27T11:01:33;98445.22;;;14.21;46.22
49611;BME280;35515;48.766;9.176;2023-04-27T11:04:00;98439.03;;;14.14;46.09
49611;BME280;35515;48.766;9.176;2023-04-27T11:06:29;98439.75;;;14.21;45.85
49611;BME280;35515;48.766;9.176;2023-04-27T11:08:57;98442.44;;;14.10;46.16
49611;BME280;35515;48.766;9.176;2023-04-27T11:11:24;98439.47;;;14.11;45.85
49611;BME280;35515;48.766;9.176;2023-04-27T11:13:53;98431.00;;;14.19;45.37
49611;BME280;35515;48.766;9.176;2023-04-27T11:16:20;98435.03;;;14.29;45.20
49611;BME280;35515;48.766;9.176;2023-04-27T11:18:46;98435.50;;;14.26;45.42
49611;BME280;35515;48.766;9.176;2023-04-27T11:21:14;98436.56;;;14.25;45.92
49611;BME280;35515;48.766;9.176;2023-04-27T11:23:42;98430.25;;;14.12;45.14
49611;BME280;35515;48.766;9.176;2023-04-27T11:26:09;98432.06;;;14.18;44.56
49611;BME280;35515;48.766;9.176;2023-04-27T11:28:36;98436.31;;;14.14;45.40
49611;BME280;35515;48.766;9.176;2023-04-27T11:31:05;98428.44;;;14.36;44.81
49611;BME280;35515;48.766;9.176;2023-04-27T11:33:32;98421.38;;;14.47;44.94
49611;BME280;35515;48.766;9.176;2023-04-27T11:35:59;98420.44;;;14.53;44.33
49611;BME280;35515;48.766;9.176;2023-04-27T11:38:32;98422.94;;;14.55;44.46
49611;BME280;35515;48.766;9.176;2023-04-27T11:41:05;98428.84;;;14.52;44.73
49611;BME280;35515;48.766;9.176;2023-04-27T11:43:32;98430.88;;;14.57;45.13
49611;BME280;35515;48.766;9.176;2023-04-27T11:46:01;98430.38;;;14.78;44.51
49611;BME280;35515;48.766;9.176;2023-04-27T11:48:28;98432.41;;;14.95;44.15
49611;BME280;35515;48.766;9.176;2023-04-27T11:50:56;98426.38;;;14.81;45.00
49611;BME280;35515;48.766;9.176;2023-04-27T11:53:28;98432.59;;;14.69;44.21
49611;BME280;35515;48.766;9.176;2023-04-27T11:55:59;98427.94;;;14.58;44.75
49611;BME280;35515;48.766;9.176;2023-04-27T11:58:27;98431.56;;;14.70;44.45
49611;BME280;35515;48.766;9.176;2023-04-27T12:00:55;98431.91;;;14.74;44.09
49611;BME280;35515;48.766;9.176;2023-04-27T12:03:22;98421.56;;;14.64;44.70
49611;BME280;35515;48.766;9.176;2023-04-27T12:05:50;98428.59;;;14.72;44.54
49611;BME280;35515;48.766;9.176;2023-04-27T12:08:17;98416.97;;;14.65;45.69
49611;BME280;35515;48.766;9.176;2023-04-27T12:10:44;98414.47;;;14.75;44.35
49611;BME280;35515;48.766;9.176;2023-04-27T12:13:12;98411.75;;;14.75;44.72
49611;BME280;35515;48.766;9.176;2023-04-27T12:15:39;98406.66;;;14.79;44.20
49611;BME280;35515;48.766;9.176;2023-04-27T12:18:06;98398.34;;;14.74;44.63
49611;BME280;35515;48.766;9.176;2023-04-27T12:20:32;98407.03;;;14.82;44.09
49611;BME280;35515;48.766;9.176;2023-04-27T12:22:59;98405.84;;;14.78;44.88
49611;BME280;35515;48.766;9.176;2023-04-27T12:25:26;98395.75;;;14.79;43.96
49611;BME280;35515;48.766;9.176;2023-04-27T12:27:52;98404.72;;;14.67;44.56
49611;BME280;35515;48.766;9.176;2023-04-27T12:30:22;98400.38;;;14.66;44.90
49611;BME280;35515;48.766;9.176;2023-04-27T12:32:48;98398.59;;;14.72;44.94
49611;BME280;35515;48.766;9.176;2023-04-27T12:35:15;98404.78;;;14.91;44.61
49611;BME280;35515;48.766;9.176;2023-04-27T12:37:42;98397.53;;;15.20;43.84
49611;BME280;35515;48.766;9.176;2023-04-27T12:40:09;98403.50;;;15.17;43.23
49611;BME280;35515;48.766;9.176;2023-04-27T12:42:35;98398.38;;;14.97;44.37
49611;BME280;35515;48.766;9.176;2023-04-27T12:45:02;98396.13;;;15.06;44.28
49611;BME280;35515;48.766;9.176;2023-04-27T12:47:30;98395.41;;;15.23;43.51
49611;BME280;35515;48.766;9.176;2023-04-27T12:49:59;98396.25;;;15.23;43.56
49611;BME280;35515;48.766;9.176;2023-04-27T12:52:26;98393.75;;;15.21;43.59
49611;BME280;35515;48.766;9.176;2023-04-27T12:54:52;98393.75;;;15.10;43.55
49611;BME280;35515;48.766;9.176;2023-04-27T12:57:23;98384.63;;;15.16;43.44
49611;BME280;35515;48.766;9.176;2023-04-27T12:59:50;98383.78;;;15.15;42.84
49611;BME280;35515;48.766;9.176;2023-04-27T13:02:17;98385.94;;;15.25;43.62
49611;BME280;35515;48.766;9.176;2023-04-27T13:04:44;98385.94;;;15.13;43.60
49611;BME280;35515;48.766;9.176;2023-04-27T13:07:11;98379.88;;;15.11;43.40
49611;BME280;35515;48.766;9.176;2023-04-27T13:09:37;98377.88;;;14.95;43.73
49611;BME280;35515;48.766;9.176;2023-04-27T13:12:05;98377.03;;;15.06;43.87